PTD01 EGAC-EGAA
Flight info
| Callsign | PTD01 |
|---|---|
| Flight time | N/A |
| Altitude | 2000 |
| Route | OPR |
| Aircraft | C172/L-SDGRY/S |
Departure
| Time | 2026-05-04 20:13 |
|---|---|
| Airport | George Best Belfast City Airport (EGAC) |
Arrival
| Time | N/A |
|---|---|
| Airport | Belfast International Airport (EGAA) |
| Time | Latitude | Longitude | Altitude | Speed | Heading |
|---|---|---|---|---|---|
| 2026-05-04 19:42 | 54.61070 | -5.87726 | 17 ft | 0 kts | 348° |
| 2026-05-04 20:01 | 54.61082 | -5.87732 | 17 ft | 6 kts | 338° |
| 2026-05-04 20:01 | 54.61083 | -5.87823 | 17 ft | 3 kts | 254° |
| 2026-05-04 20:02 | 54.61083 | -5.87827 | 17 ft | 0 kts | 260° |
| 2026-05-04 20:02 | 54.61083 | -5.87834 | 17 ft | 1 kts | 288° |
| 2026-05-04 20:02 | 54.61085 | -5.87837 | 17 ft | 0 kts | 329° |
| 2026-05-04 20:11 | 54.61086 | -5.87838 | 17 ft | 1 kts | 310° |
| 2026-05-04 20:11 | 54.61083 | -5.87884 | 17 ft | 7 kts | 291° |
| 2026-05-04 20:11 | 54.61089 | -5.87899 | 17 ft | 0 kts | 318° |
| 2026-05-04 20:12 | 54.61125 | -5.87995 | 17 ft | 19 kts | 317° |
| 2026-05-04 20:12 | 54.61256 | -5.87918 | 16 ft | 39 kts | 34° |
| 2026-05-04 20:12 | 54.61588 | -5.87538 | 64 ft | 69 kts | 29° |
| 2026-05-04 20:12 | 54.62000 | -5.87027 | 254 ft | 73 kts | 33° |
| 2026-05-04 20:13 | 54.62414 | -5.86524 | 455 ft | 75 kts | 30° |
| 2026-05-04 20:13 | 54.62873 | -5.85981 | 581 ft | 85 kts | 34° |
| 2026-05-04 20:13 | 54.63370 | -5.85396 | 776 ft | 88 kts | 32° |
| 2026-05-04 20:13 | 54.63867 | -5.84825 | 1099 ft | 81 kts | 28° |
| 2026-05-04 20:14 | 54.64335 | -5.84257 | 1339 ft | 82 kts | 31° |
| 2026-05-04 20:14 | 54.64783 | -5.83689 | 1596 ft | 79 kts | 31° |
| 2026-05-04 20:14 | 54.65225 | -5.83131 | 1825 ft | 78 kts | 29° |
| 2026-05-04 20:14 | 54.65667 | -5.82583 | 2024 ft | 78 kts | 28° |
| 2026-05-04 20:15 | 54.66109 | -5.82040 | 2219 ft | 78 kts | 30° |
| 2026-05-04 20:15 | 54.66551 | -5.81481 | 2409 ft | 79 kts | 27° |
| 2026-05-04 20:15 | 54.67001 | -5.80956 | 2609 ft | 79 kts | 26° |
| 2026-05-04 20:15 | 54.67491 | -5.80420 | 2758 ft | 84 kts | 25° |
| 2026-05-04 20:16 | 54.67966 | -5.79866 | 2996 ft | 80 kts | 25° |
| 2026-05-04 20:16 | 54.68425 | -5.79331 | 3187 ft | 82 kts | 27° |
| 2026-05-04 20:16 | 54.68890 | -5.78766 | 3385 ft | 81 kts | 27° |
| 2026-05-04 20:16 | 54.69350 | -5.78231 | 3568 ft | 81 kts | 25° |
| 2026-05-04 20:17 | 54.69805 | -5.77661 | 3758 ft | 81 kts | 27° |
| 2026-05-04 20:17 | 54.70258 | -5.77081 | 3909 ft | 84 kts | 28° |
| 2026-05-04 20:17 | 54.70734 | -5.76525 | 4092 ft | 82 kts | 26° |
| 2026-05-04 20:17 | 54.71159 | -5.75797 | 4225 ft | 91 kts | 41° |
| 2026-05-04 20:18 | 54.71651 | -5.75004 | 4336 ft | 96 kts | 36° |
| 2026-05-04 20:18 | 54.71995 | -5.73930 | 4297 ft | 109 kts | 73° |
| 2026-05-04 20:18 | 54.71904 | -5.72581 | 4197 ft | 115 kts | 112° |
| 2026-05-04 20:18 | 54.71510 | -5.71396 | 4076 ft | 115 kts | 128° |
| 2026-05-04 20:19 | 54.71032 | -5.70296 | 3959 ft | 113 kts | 128° |
| 2026-05-04 20:19 | 54.70604 | -5.69182 | 3905 ft | 112 kts | 120° |
| 2026-05-04 20:19 | 54.70198 | -5.68006 | 3854 ft | 115 kts | 121° |
| 2026-05-04 20:19 | 54.69790 | -5.66837 | 3876 ft | 114 kts | 121° |
| 2026-05-04 20:20 | 54.69379 | -5.65652 | 3891 ft | 115 kts | 120° |
| 2026-05-04 20:20 | 54.68986 | -5.64454 | 3932 ft | 114 kts | 118° |
| 2026-05-04 20:20 | 54.68616 | -5.63246 | 3963 ft | 116 kts | 117° |
| 2026-05-04 20:20 | 54.68244 | -5.62001 | 4010 ft | 117 kts | 117° |
| 2026-05-04 20:21 | 54.67850 | -5.60763 | 4012 ft | 117 kts | 119° |
| 2026-05-04 20:21 | 54.67463 | -5.59542 | 4036 ft | 120 kts | 118° |
| 2026-05-04 20:21 | 54.66495 | -5.57226 | 4047 ft | 123 kts | 151° |
| 2026-05-04 20:22 | 54.65695 | -5.56815 | 4029 ft | 119 kts | 186° |
| 2026-05-04 20:22 | 54.64920 | -5.57133 | 4039 ft | 114 kts | 209° |
| 2026-05-04 20:22 | 54.64185 | -5.57659 | 4030 ft | 114 kts | 211° |
| 2026-05-04 20:22 | 54.63461 | -5.58199 | 4014 ft | 114 kts | 211° |
| 2026-05-04 20:23 | 54.62738 | -5.58740 | 4012 ft | 112 kts | 211° |
| 2026-05-04 20:23 | 54.62011 | -5.59268 | 3984 ft | 114 kts | 208° |
| 2026-05-04 20:23 | 54.61265 | -5.59743 | 3968 ft | 114 kts | 204° |
| 2026-05-04 20:23 | 54.60521 | -5.60210 | 3950 ft | 114 kts | 210° |
| 2026-05-04 20:24 | 54.59793 | -5.60716 | 3982 ft | 111 kts | 210° |
| 2026-05-04 20:24 | 54.59087 | -5.61233 | 4004 ft | 109 kts | 210° |
| 2026-05-04 20:24 | 54.58365 | -5.61743 | 3949 ft | 113 kts | 210° |
| 2026-05-04 20:24 | 54.57649 | -5.62265 | 3965 ft | 112 kts | 208° |
| 2026-05-04 20:25 | 54.56908 | -5.62730 | 3958 ft | 112 kts | 208° |
| 2026-05-04 20:25 | 54.56195 | -5.63251 | 3972 ft | 112 kts | 210° |
| 2026-05-04 20:25 | 54.55482 | -5.63758 | 3980 ft | 112 kts | 205° |
| 2026-05-04 20:25 | 54.54730 | -5.64159 | 3966 ft | 112 kts | 207° |
| 2026-05-04 20:26 | 54.54009 | -5.64660 | 3952 ft | 112 kts | 211° |
| 2026-05-04 20:26 | 54.53308 | -5.65225 | 3950 ft | 111 kts | 212° |
| 2026-05-04 20:26 | 54.52602 | -5.65767 | 3942 ft | 112 kts | 210° |
| 2026-05-04 20:26 | 54.51892 | -5.66268 | 3943 ft | 111 kts | 210° |
| 2026-05-04 20:27 | 54.51173 | -5.66777 | 3950 ft | 112 kts | 210° |
| 2026-05-04 20:27 | 54.50460 | -5.67317 | 3957 ft | 111 kts | 210° |
| 2026-05-04 20:27 | 54.49740 | -5.67801 | 3963 ft | 112 kts | 206° |
| 2026-05-04 20:27 | 54.49016 | -5.68286 | 3950 ft | 112 kts | 208° |
| 2026-05-04 20:28 | 54.48291 | -5.68787 | 3926 ft | 112 kts | 210° |
| 2026-05-04 20:28 | 54.47589 | -5.69340 | 3951 ft | 109 kts | 217° |
| 2026-05-04 20:28 | 54.47095 | -5.70255 | 3954 ft | 101 kts | 254° |
| 2026-05-04 20:28 | 54.47135 | -5.71356 | 4003 ft | 93 kts | 305° |
| 2026-05-04 20:29 | 54.47467 | -5.71824 | 3959 ft | 97 kts | 330° |
| 2026-05-04 20:29 | 54.48049 | -5.72425 | 3961 ft | 96 kts | 327° |
| 2026-05-04 20:29 | 54.48618 | -5.73042 | 3956 ft | 98 kts | 327° |
| 2026-05-04 20:29 | 54.49171 | -5.73702 | 3959 ft | 97 kts | 323° |
| 2026-05-04 20:30 | 54.49714 | -5.74389 | 3968 ft | 96 kts | 324° |
| 2026-05-04 20:30 | 54.50266 | -5.75019 | 3970 ft | 96 kts | 326° |
| 2026-05-04 20:30 | 54.50847 | -5.75619 | 3987 ft | 96 kts | 327° |
| 2026-05-04 20:30 | 54.51389 | -5.76274 | 3972 ft | 97 kts | 323° |
| 2026-05-04 20:31 | 54.51966 | -5.76886 | 3993 ft | 96 kts | 330° |
| 2026-05-04 20:31 | 54.52559 | -5.77409 | 3980 ft | 98 kts | 330° |
| 2026-05-04 20:31 | 54.53160 | -5.77942 | 3995 ft | 96 kts | 330° |
| 2026-05-04 20:31 | 54.53747 | -5.78489 | 3987 ft | 97 kts | 331° |
| 2026-05-04 20:32 | 54.54355 | -5.78981 | 3991 ft | 96 kts | 332° |
| 2026-05-04 20:32 | 54.54945 | -5.79547 | 3972 ft | 97 kts | 327° |
| 2026-05-04 20:32 | 54.55502 | -5.80179 | 3972 ft | 96 kts | 323° |
| 2026-05-04 20:32 | 54.56053 | -5.80843 | 3978 ft | 96 kts | 325° |
| 2026-05-04 20:33 | 54.56623 | -5.81435 | 3966 ft | 96 kts | 327° |
| 2026-05-04 20:33 | 54.57200 | -5.81998 | 3984 ft | 95 kts | 330° |
| 2026-05-04 20:33 | 54.57791 | -5.82522 | 3980 ft | 96 kts | 330° |
| 2026-05-04 20:33 | 54.58368 | -5.83077 | 4008 ft | 95 kts | 328° |
| 2026-05-04 20:34 | 54.58934 | -5.83673 | 4021 ft | 95 kts | 326° |
| 2026-05-04 20:34 | 54.59490 | -5.84290 | 4032 ft | 95 kts | 324° |
| 2026-05-04 20:34 | 54.60044 | -5.84908 | 4039 ft | 95 kts | 326° |
| 2026-05-04 20:34 | 54.60598 | -5.85522 | 4059 ft | 94 kts | 323° |
| 2026-05-04 20:35 | 54.61145 | -5.86149 | 4058 ft | 95 kts | 327° |
| 2026-05-04 20:35 | 54.61714 | -5.86731 | 4064 ft | 95 kts | 327° |
| 2026-05-04 20:35 | 54.62290 | -5.87303 | 4094 ft | 95 kts | 332° |
| 2026-05-04 20:35 | 54.62976 | -5.87405 | 4044 ft | 106 kts | 11° |
| 2026-05-04 20:36 | 54.63554 | -5.86627 | 4039 ft | 115 kts | 55° |
| 2026-05-04 20:36 | 54.63690 | -5.85257 | 4042 ft | 119 kts | 98° |
| 2026-05-04 20:36 | 54.63357 | -5.83957 | 4048 ft | 120 kts | 128° |
| 2026-05-04 20:36 | 54.62848 | -5.82847 | 4106 ft | 117 kts | 131° |
| 2026-05-04 20:37 | 54.62342 | -5.81722 | 4054 ft | 122 kts | 126° |
| 2026-05-04 20:37 | 54.61769 | -5.80682 | 4048 ft | 119 kts | 156° |
| 2026-05-04 20:37 | 54.60976 | -5.80476 | 4015 ft | 115 kts | 201° |
| 2026-05-04 20:37 | 54.60335 | -5.81174 | 4069 ft | 101 kts | 232° |
| 2026-05-04 20:38 | 54.59913 | -5.82132 | 4043 ft | 103 kts | 242° |
| 2026-05-04 20:38 | 54.59521 | -5.83144 | 4072 ft | 100 kts | 245° |
| 2026-05-04 20:38 | 54.59114 | -5.84131 | 4068 ft | 102 kts | 240° |
| 2026-05-04 20:38 | 54.58797 | -5.85195 | 4047 ft | 101 kts | 253° |
| 2026-05-04 20:39 | 54.58439 | -5.86241 | 4074 ft | 100 kts | 242° |
| 2026-05-04 20:39 | 54.58012 | -5.87212 | 4078 ft | 103 kts | 237° |
| 2026-05-04 20:39 | 54.57744 | -5.88306 | 4084 ft | 100 kts | 269° |
| 2026-05-04 20:39 | 54.57891 | -5.89432 | 4102 ft | 97 kts | 302° |
| 2026-05-04 20:40 | 54.58427 | -5.90119 | 4080 ft | 100 kts | 339° |
| 2026-05-04 20:40 | 54.59113 | -5.90242 | 4103 ft | 100 kts | 357° |
| 2026-05-04 20:40 | 54.59815 | -5.90082 | 4084 ft | 106 kts | 15° |
| 2026-05-04 20:40 | 54.60413 | -5.89295 | 4096 ft | 108 kts | 38° |
| 2026-05-04 20:41 | 54.61000 | -5.88498 | 4066 ft | 109 kts | 31° |
| 2026-05-04 20:41 | 54.61600 | -5.87747 | 4135 ft | 104 kts | 28° |
| 2026-05-04 20:41 | 54.62201 | -5.87014 | 4111 ft | 109 kts | 32° |
| 2026-05-04 20:41 | 54.62562 | -5.85826 | 4003 ft | 122 kts | 85° |
| 2026-05-04 20:42 | 54.62304 | -5.84500 | 4016 ft | 119 kts | 129° |
| 2026-05-04 20:42 | 54.61621 | -5.83730 | 3970 ft | 118 kts | 171° |
| 2026-05-04 20:42 | 54.60848 | -5.83800 | 3981 ft | 110 kts | 208° |
| 2026-05-04 20:42 | 54.60262 | -5.84567 | 3963 ft | 102 kts | 239° |
| 2026-05-04 20:43 | 54.59831 | -5.85514 | 3932 ft | 101 kts | 237° |
| 2026-05-04 20:43 | 54.59392 | -5.86479 | 3898 ft | 102 kts | 238° |
| 2026-05-04 20:43 | 54.58948 | -5.87403 | 3869 ft | 103 kts | 232° |
| 2026-05-04 20:43 | 54.58311 | -5.88054 | 3803 ft | 111 kts | 197° |
| 2026-05-04 20:44 | 54.57659 | -5.88627 | 3807 ft | 103 kts | 234° |
| 2026-05-04 20:44 | 54.57379 | -5.89721 | 3746 ft | 101 kts | 270° |
| 2026-05-04 20:44 | 54.57557 | -5.90827 | 3788 ft | 92 kts | 305° |
| 2026-05-04 20:44 | 54.58037 | -5.91531 | 3814 ft | 94 kts | 335° |
| 2026-05-04 20:45 | 54.58702 | -5.91549 | 3805 ft | 104 kts | 18° |
| 2026-05-04 20:45 | 54.59253 | -5.90757 | 3877 ft | 102 kts | 36° |
| 2026-05-04 20:45 | 54.59822 | -5.90010 | 3884 ft | 104 kts | 32° |
| 2026-05-04 20:45 | 54.60382 | -5.89228 | 3943 ft | 101 kts | 31° |
| 2026-05-04 20:46 | 54.60952 | -5.88521 | 3980 ft | 101 kts | 31° |
| 2026-05-04 20:46 | 54.61505 | -5.87793 | 4043 ft | 100 kts | 30° |
| 2026-05-04 20:46 | 54.62090 | -5.87076 | 4030 ft | 105 kts | 28° |
| 2026-05-04 20:46 | 54.62623 | -5.86191 | 4026 ft | 113 kts | 56° |
| 2026-05-04 20:47 | 54.62793 | -5.84825 | 4003 ft | 122 kts | 92° |
| 2026-05-04 20:47 | 54.62498 | -5.83486 | 4065 ft | 119 kts | 128° |
| 2026-05-04 20:47 | 54.61863 | -5.82612 | 4104 ft | 116 kts | 162° |
| 2026-05-04 20:47 | 54.61078 | -5.82515 | 4092 ft | 114 kts | 201° |
| 2026-05-04 20:48 | 54.60415 | -5.83205 | 4011 ft | 113 kts | 230° |
| 2026-05-04 20:48 | 54.59854 | -5.84096 | 4023 ft | 107 kts | 225° |
| 2026-05-04 20:48 | 54.59294 | -5.84905 | 3998 ft | 104 kts | 229° |
| 2026-05-04 20:48 | 54.58728 | -5.85687 | 3949 ft | 106 kts | 225° |
| 2026-05-04 20:49 | 54.58163 | -5.86494 | 3933 ft | 102 kts | 227° |
| 2026-05-04 20:49 | 54.57559 | -5.87187 | 3882 ft | 108 kts | 209° |
| 2026-05-04 20:49 | 54.56833 | -5.87571 | 3861 ft | 108 kts | 218° |
| 2026-05-04 20:49 | 54.56352 | -5.88480 | 3871 ft | 100 kts | 249° |
| 2026-05-04 20:50 | 54.56232 | -5.89584 | 3930 ft | 91 kts | 282° |
| 2026-05-04 20:50 | 54.56555 | -5.90531 | 3894 ft | 99 kts | 323° |
| 2026-05-04 20:50 | 54.57227 | -5.90808 | 3909 ft | 102 kts | 3° |
| 2026-05-04 20:50 | 54.57911 | -5.90492 | 3936 ft | 101 kts | 6° |
| 2026-05-04 20:51 | 54.58603 | -5.90377 | 3947 ft | 99 kts | 357° |
| 2026-05-04 20:51 | 54.59300 | -5.90322 | 3947 ft | 102 kts | 4° |
| 2026-05-04 20:51 | 54.59957 | -5.89758 | 3936 ft | 109 kts | 34° |
| 2026-05-04 20:51 | 54.60505 | -5.88912 | 4001 ft | 105 kts | 34° |
| 2026-05-04 20:52 | 54.61099 | -5.88118 | 3963 ft | 108 kts | 32° |
| 2026-05-04 20:52 | 54.61671 | -5.87349 | 4029 ft | 105 kts | 32° |
| 2026-05-04 20:52 | 54.62249 | -5.86519 | 4003 ft | 109 kts | 38° |
| 2026-05-04 20:52 | 54.62655 | -5.85395 | 3991 ft | 118 kts | 72° |
| 2026-05-04 20:53 | 54.62557 | -5.83989 | 3983 ft | 121 kts | 119° |
| 2026-05-04 20:53 | 54.61970 | -5.82989 | 3977 ft | 120 kts | 157° |
| 2026-05-04 20:53 | 54.61173 | -5.82748 | 3972 ft | 115 kts | 191° |
| 2026-05-04 20:53 | 54.60453 | -5.83189 | 3964 ft | 107 kts | 216° |
| 2026-05-04 20:54 | 54.59827 | -5.83843 | 3988 ft | 105 kts | 218° |
| 2026-05-04 20:54 | 54.59213 | -5.84524 | 3955 ft | 105 kts | 224° |
| 2026-05-04 20:54 | 54.58655 | -5.85323 | 3937 ft | 103 kts | 229° |
| 2026-05-04 20:54 | 54.58139 | -5.86175 | 3924 ft | 103 kts | 232° |
| 2026-05-04 20:55 | 54.57643 | -5.87068 | 3918 ft | 102 kts | 234° |
| 2026-05-04 20:55 | 54.57045 | -5.87789 | 3866 ft | 111 kts | 208° |
| 2026-05-04 20:55 | 54.56395 | -5.88401 | 3913 ft | 103 kts | 223° |
| 2026-05-04 20:55 | 54.55803 | -5.89151 | 3876 ft | 106 kts | 223° |
| 2026-05-04 20:56 | 54.55222 | -5.89888 | 3892 ft | 104 kts | 221° |
| 2026-05-04 20:56 | 54.54605 | -5.90604 | 3855 ft | 107 kts | 219° |
| 2026-05-04 20:56 | 54.53932 | -5.91142 | 3864 ft | 108 kts | 207° |
| 2026-05-04 20:56 | 54.53266 | -5.91726 | 3855 ft | 108 kts | 218° |
| 2026-05-04 20:57 | 54.52673 | -5.92478 | 3738 ft | 107 kts | 227° |
| 2026-05-04 20:57 | 54.52122 | -5.93323 | 3598 ft | 105 kts | 229° |
| 2026-05-04 20:57 | 54.51541 | -5.94091 | 3458 ft | 104 kts | 222° |
| 2026-05-04 20:57 | 54.50922 | -5.94775 | 3282 ft | 107 kts | 216° |
| 2026-05-04 20:58 | 54.50269 | -5.95454 | 3009 ft | 114 kts | 218° |
| 2026-05-04 20:58 | 54.49627 | -5.96211 | 2867 ft | 107 kts | 223° |
| 2026-05-04 20:58 | 54.49046 | -5.96998 | 2722 ft | 106 kts | 223° |
| 2026-05-04 20:58 | 54.48448 | -5.97752 | 2707 ft | 107 kts | 222° |
| 2026-05-04 20:59 | 54.47827 | -5.98463 | 2767 ft | 106 kts | 218° |
| 2026-05-04 20:59 | 54.47186 | -5.99115 | 2763 ft | 110 kts | 214° |
| 2026-05-04 20:59 | 54.46510 | -5.99739 | 2763 ft | 110 kts | 215° |
| 2026-05-04 20:59 | 54.45882 | -6.00451 | 2779 ft | 108 kts | 221° |
| 2026-05-04 21:00 | 54.45294 | -6.01248 | 2784 ft | 108 kts | 228° |
| 2026-05-04 21:00 | 54.44760 | -6.02108 | 2849 ft | 103 kts | 229° |
| 2026-05-04 21:00 | 54.44434 | -6.03175 | 2813 ft | 101 kts | 269° |
| 2026-05-04 21:00 | 54.44620 | -6.04271 | 2844 ft | 96 kts | 310° |
| 2026-05-04 21:01 | 54.45166 | -6.04937 | 2825 ft | 100 kts | 341° |
| 2026-05-04 21:01 | 54.45872 | -6.05013 | 2775 ft | 103 kts | 3° |
| 2026-05-04 21:01 | 54.46576 | -6.04704 | 2731 ft | 106 kts | 21° |
| 2026-05-04 21:01 | 54.47209 | -6.04095 | 2709 ft | 105 kts | 25° |
| 2026-05-04 21:02 | 54.47837 | -6.03407 | 2632 ft | 109 kts | 32° |
| 2026-05-04 21:02 | 54.48425 | -6.02563 | 2492 ft | 108 kts | 30° |
| 2026-05-04 21:02 | 54.49066 | -6.01911 | 2267 ft | 105 kts | 26° |
| 2026-05-04 21:02 | 54.49702 | -6.01273 | 2006 ft | 106 kts | 25° |
| 2026-05-04 21:03 | 54.50310 | -6.00656 | 1959 ft | 98 kts | 27° |
| 2026-05-04 21:03 | 54.50908 | -6.00061 | 1924 ft | 99 kts | 24° |
| 2026-05-04 21:03 | 54.51531 | -5.99487 | 1876 ft | 102 kts | 21° |
| 2026-05-04 21:03 | 54.52164 | -5.98913 | 1811 ft | 106 kts | 31° |
| 2026-05-04 21:04 | 54.52689 | -5.98131 | 1916 ft | 96 kts | 36° |
| 2026-05-04 21:04 | 54.53232 | -5.97401 | 1897 ft | 99 kts | 30° |
| 2026-05-04 21:04 | 54.53796 | -5.96730 | 1890 ft | 97 kts | 30° |
| 2026-05-04 21:04 | 54.54361 | -5.96046 | 1755 ft | 100 kts | 30° |
| 2026-05-04 21:05 | 54.54938 | -5.95379 | 1606 ft | 100 kts | 28° |
| 2026-05-04 21:05 | 54.55536 | -5.94750 | 1467 ft | 101 kts | 27° |
| 2026-05-04 21:05 | 54.56112 | -5.94085 | 1337 ft | 101 kts | 33° |
| 2026-05-04 21:05 | 54.56673 | -5.93352 | 1095 ft | 99 kts | 34° |
| 2026-05-04 21:06 | 54.57243 | -5.92681 | 908 ft | 98 kts | 30° |
| 2026-05-04 21:06 | 54.57829 | -5.92130 | 804 ft | 94 kts | 24° |
| 2026-05-04 21:06 | 54.58369 | -5.91485 | 688 ft | 96 kts | 43° |
| 2026-05-04 21:06 | 54.58891 | -5.90789 | 531 ft | 100 kts | 35° |
| 2026-05-04 21:07 | 54.59438 | -5.90086 | 467 ft | 97 kts | 34° |
| 2026-05-04 21:07 | 54.60012 | -5.89446 | 337 ft | 99 kts | 31° |
| 2026-05-04 21:07 | 54.60566 | -5.88746 | 216 ft | 103 kts | 37° |
| 2026-05-04 21:07 | 54.61118 | -5.87973 | 446 ft | 97 kts | 38° |
| 2026-05-04 21:08 | 54.61658 | -5.87300 | 675 ft | 97 kts | 31° |
| 2026-05-04 21:08 | 54.62215 | -5.86653 | 890 ft | 97 kts | 32° |
| 2026-05-04 21:08 | 54.62770 | -5.85974 | 1090 ft | 98 kts | 31° |
| 2026-05-04 21:08 | 54.63309 | -5.85254 | 1317 ft | 99 kts | 41° |
| 2026-05-04 21:09 | 54.63835 | -5.84521 | 1582 ft | 92 kts | 27° |
| 2026-05-04 21:09 | 54.64365 | -5.83927 | 1859 ft | 87 kts | 28° |
| 2026-05-04 21:09 | 54.64854 | -5.83329 | 2093 ft | 87 kts | 27° |
| 2026-05-04 21:09 | 54.65360 | -5.82770 | 2318 ft | 85 kts | 24° |
| 2026-05-04 21:10 | 54.65874 | -5.82236 | 2521 ft | 86 kts | 24° |
| 2026-05-04 21:10 | 54.66376 | -5.81668 | 2732 ft | 87 kts | 24° |
| 2026-05-04 21:10 | 54.66902 | -5.81127 | 2885 ft | 92 kts | 22° |
| 2026-05-04 21:10 | 54.67479 | -5.80544 | 2994 ft | 102 kts | 29° |
| 2026-05-04 21:11 | 54.67934 | -5.79507 | 3027 ft | 116 kts | 68° |
| 2026-05-04 21:11 | 54.67884 | -5.78100 | 3021 ft | 123 kts | 114° |
| 2026-05-04 21:11 | 54.67312 | -5.77020 | 3026 ft | 123 kts | 153° |
| 2026-05-04 21:11 | 54.66506 | -5.76643 | 3033 ft | 119 kts | 187° |
| 2026-05-04 21:12 | 54.65744 | -5.77035 | 3006 ft | 111 kts | 221° |
| 2026-05-04 21:12 | 54.65243 | -5.77968 | 2978 ft | 105 kts | 239° |
| 2026-05-04 21:12 | 54.64788 | -5.78935 | 2965 ft | 103 kts | 238° |
| 2026-05-04 21:12 | 54.64430 | -5.79975 | 2914 ft | 102 kts | 248° |
| 2026-05-04 21:13 | 54.64097 | -5.81022 | 2957 ft | 98 kts | 248° |
| 2026-05-04 21:13 | 54.63785 | -5.82062 | 2963 ft | 98 kts | 250° |
| 2026-05-04 21:13 | 54.63462 | -5.83108 | 2918 ft | 102 kts | 248° |
| 2026-05-04 21:13 | 54.63138 | -5.84172 | 2935 ft | 99 kts | 249° |
| 2026-05-04 21:14 | 54.62814 | -5.85210 | 2965 ft | 97 kts | 248° |
| 2026-05-04 21:14 | 54.62487 | -5.86240 | 2940 ft | 98 kts | 248° |
| 2026-05-04 21:14 | 54.62152 | -5.87266 | 2949 ft | 97 kts | 245° |
| 2026-05-04 21:14 | 54.61668 | -5.88134 | 2967 ft | 100 kts | 227° |
| 2026-05-04 21:15 | 54.61095 | -5.88797 | 2987 ft | 100 kts | 222° |
| 2026-05-04 21:15 | 54.60490 | -5.89425 | 2970 ft | 102 kts | 216° |
| 2026-05-04 21:15 | 54.60097 | -5.89862 | 2960 ft | 101 kts | 222° |
| 2026-05-04 21:15 | 54.59532 | -5.90573 | 2956 ft | 100 kts | 227° |
| 2026-05-04 21:16 | 54.58972 | -5.91295 | 2955 ft | 101 kts | 219° |
| 2026-05-04 21:16 | 54.58262 | -5.91478 | 2926 ft | 110 kts | 168° |
| 2026-05-04 21:16 | 54.57669 | -5.90706 | 2974 ft | 107 kts | 122° |
| 2026-05-04 21:16 | 54.57496 | -5.89476 | 2962 ft | 104 kts | 78° |
| 2026-05-04 21:17 | 54.57817 | -5.88441 | 2933 ft | 99 kts | 29° |
| 2026-05-04 21:17 | 54.58470 | -5.88170 | 2893 ft | 94 kts | 1° |
| 2026-05-04 21:17 | 54.59098 | -5.88161 | 2903 ft | 90 kts | 343° |
| 2026-05-04 21:17 | 54.59665 | -5.88476 | 2995 ft | 83 kts | 339° |
| 2026-05-04 21:18 | 54.60228 | -5.88754 | 3062 ft | 84 kts | 342° |
| 2026-05-04 21:18 | 54.60844 | -5.88916 | 3037 ft | 96 kts | 11° |
| 2026-05-04 21:18 | 54.61372 | -5.88196 | 3161 ft | 95 kts | 37° |
| 2026-05-04 21:18 | 54.61877 | -5.87389 | 3148 ft | 102 kts | 35° |
| 2026-05-04 21:19 | 54.62345 | -5.86474 | 3184 ft | 109 kts | 56° |
| 2026-05-04 21:19 | 54.62508 | -5.85138 | 3143 ft | 118 kts | 94° |
| 2026-05-04 21:19 | 54.62164 | -5.83863 | 3071 ft | 124 kts | 139° |
| 2026-05-04 21:19 | 54.61402 | -5.83385 | 3026 ft | 116 kts | 190° |
| 2026-05-04 21:20 | 54.60720 | -5.83963 | 2999 ft | 106 kts | 224° |
| 2026-05-04 21:20 | 54.60132 | -5.84723 | 2938 ft | 106 kts | 223° |
| 2026-05-04 21:20 | 54.59526 | -5.85443 | 2886 ft | 104 kts | 220° |
| 2026-05-04 21:20 | 54.58973 | -5.86215 | 2816 ft | 102 kts | 229° |
| 2026-05-04 21:21 | 54.58420 | -5.86991 | 2792 ft | 102 kts | 226° |
| 2026-05-04 21:21 | 54.57868 | -5.87729 | 2819 ft | 102 kts | 222° |
| 2026-05-04 21:21 | 54.57245 | -5.88345 | 2790 ft | 105 kts | 214° |
| 2026-05-04 21:21 | 54.56624 | -5.88986 | 2807 ft | 103 kts | 221° |
| 2026-05-04 21:22 | 54.56042 | -5.89720 | 2777 ft | 104 kts | 224° |
| 2026-05-04 21:22 | 54.55477 | -5.90457 | 2800 ft | 102 kts | 222° |
| 2026-05-04 21:22 | 54.54883 | -5.91146 | 2799 ft | 104 kts | 218° |
| 2026-05-04 21:22 | 54.54271 | -5.91830 | 2763 ft | 106 kts | 220° |
| 2026-05-04 21:23 | 54.53668 | -5.92545 | 2785 ft | 103 kts | 222° |
| 2026-05-04 21:23 | 54.53085 | -5.93253 | 2801 ft | 102 kts | 222° |
| 2026-05-04 21:23 | 54.52513 | -5.93939 | 2816 ft | 102 kts | 221° |
| 2026-05-04 21:23 | 54.51914 | -5.94639 | 2799 ft | 104 kts | 220° |
| 2026-05-04 21:24 | 54.51294 | -5.95302 | 2766 ft | 107 kts | 216° |
| 2026-05-04 21:24 | 54.50649 | -5.95922 | 2776 ft | 104 kts | 219° |
| 2026-05-04 21:24 | 54.50039 | -5.96587 | 2770 ft | 104 kts | 220° |
| 2026-05-04 21:24 | 54.49473 | -5.97319 | 2778 ft | 100 kts | 225° |
| 2026-05-04 21:25 | 54.48897 | -5.98036 | 2740 ft | 104 kts | 220° |
| 2026-05-04 21:25 | 54.48292 | -5.98703 | 2735 ft | 104 kts | 217° |
| 2026-05-04 21:25 | 54.47692 | -5.99372 | 2755 ft | 101 kts | 222° |
| 2026-05-04 21:25 | 54.47098 | -6.00030 | 2746 ft | 102 kts | 217° |
| 2026-05-04 21:26 | 54.46488 | -6.00648 | 2750 ft | 102 kts | 219° |
| 2026-05-04 21:26 | 54.45909 | -6.01359 | 2759 ft | 103 kts | 221° |
| 2026-05-04 21:26 | 54.45324 | -6.02050 | 2794 ft | 100 kts | 222° |
| 2026-05-04 21:26 | 54.44766 | -6.02757 | 2789 ft | 104 kts | 224° |
| 2026-05-04 21:27 | 54.44398 | -6.03755 | 2810 ft | 97 kts | 266° |
| 2026-05-04 21:27 | 54.44524 | -6.04848 | 2808 ft | 94 kts | 303° |
| 2026-05-04 21:27 | 54.45032 | -6.05546 | 2802 ft | 96 kts | 337° |
| 2026-05-04 21:27 | 54.45685 | -6.05809 | 2795 ft | 98 kts | 355° |
| 2026-05-04 21:28 | 54.46329 | -6.05367 | 2777 ft | 102 kts | 31° |
| 2026-05-04 21:28 | 54.46937 | -6.04719 | 2772 ft | 102 kts | 26° |
| 2026-05-04 21:28 | 54.47539 | -6.04086 | 2761 ft | 104 kts | 30° |
| 2026-05-04 21:28 | 54.48127 | -6.03350 | 2634 ft | 103 kts | 28° |
| 2026-05-04 21:29 | 54.48754 | -6.02797 | 2497 ft | 102 kts | 21° |
| 2026-05-04 21:29 | 54.49351 | -6.02115 | 2356 ft | 103 kts | 33° |
| 2026-05-04 21:29 | 54.49907 | -6.01336 | 2221 ft | 103 kts | 33° |
| 2026-05-04 21:29 | 54.50489 | -6.00607 | 2061 ft | 102 kts | 30° |
| 2026-05-04 21:30 | 54.51065 | -5.99963 | 1960 ft | 95 kts | 26° |
| 2026-05-04 21:30 | 54.51622 | -5.99397 | 1925 ft | 92 kts | 28° |
| 2026-05-04 21:30 | 54.52160 | -5.98740 | 1835 ft | 97 kts | 33° |
| 2026-05-04 21:30 | 54.52697 | -5.98035 | 1823 ft | 97 kts | 29° |
| 2026-05-04 21:31 | 54.53885 | -5.96844 | 1803 ft | 103 kts | 30° |
| 2026-05-04 21:31 | 54.54441 | -5.96089 | 1720 ft | 102 kts | 35° |
| 2026-05-04 21:31 | 54.54993 | -5.95346 | 1603 ft | 101 kts | 32° |
| 2026-05-04 21:32 | 54.55573 | -5.94657 | 1462 ft | 103 kts | 28° |
| 2026-05-04 21:32 | 54.56188 | -5.93970 | 1258 ft | 107 kts | 31° |
| 2026-05-04 21:32 | 54.56789 | -5.93215 | 1028 ft | 107 kts | 36° |
| 2026-05-04 21:32 | 54.57355 | -5.92424 | 915 ft | 101 kts | 34° |
| 2026-05-04 21:33 | 54.57948 | -5.91788 | 778 ft | 101 kts | 32° |
| 2026-05-04 21:33 | 54.58542 | -5.91154 | 659 ft | 99 kts | 29° |
| 2026-05-04 21:33 | 54.59119 | -5.90508 | 568 ft | 99 kts | 33° |
| 2026-05-04 21:33 | 54.59677 | -5.89788 | 428 ft | 102 kts | 38° |
| 2026-05-04 21:34 | 54.60248 | -5.89077 | 303 ft | 101 kts | 30° |
| 2026-05-04 21:34 | 54.60836 | -5.88481 | 485 ft | 94 kts | 28° |
| 2026-05-04 21:34 | 54.61381 | -5.87852 | 728 ft | 94 kts | 33° |
| 2026-05-04 21:34 | 54.61941 | -5.87181 | 866 ft | 101 kts | 30° |
| 2026-05-04 21:35 | 54.62548 | -5.86557 | 1082 ft | 100 kts | 26° |
| 2026-05-04 21:35 | 54.63144 | -5.85924 | 1315 ft | 100 kts | 30° |
| 2026-05-04 21:35 | 54.63710 | -5.85242 | 1501 ft | 102 kts | 32° |
| 2026-05-04 21:35 | 54.64116 | -5.84231 | 1700 ft | 108 kts | 71° |
| 2026-05-04 21:36 | 54.64069 | -5.82926 | 1923 ft | 112 kts | 109° |
| 2026-05-04 21:36 | 54.63571 | -5.81869 | 2050 ft | 116 kts | 148° |
| 2026-05-04 21:36 | 54.62805 | -5.81463 | 2058 ft | 117 kts | 182° |
| 2026-05-04 21:36 | 54.62024 | -5.81657 | 2072 ft | 112 kts | 205° |
| 2026-05-04 21:37 | 54.61264 | -5.82027 | 2023 ft | 112 kts | 205° |
| 2026-05-04 21:37 | 54.60580 | -5.82614 | 1954 ft | 109 kts | 211° |
| 2026-05-04 21:37 | 54.59849 | -5.83032 | 1897 ft | 110 kts | 204° |
| 2026-05-04 21:37 | 54.59126 | -5.83427 | 1954 ft | 107 kts | 204° |
| 2026-05-04 21:38 | 54.58414 | -5.83771 | 1975 ft | 110 kts | 201° |
| 2026-05-04 21:38 | 54.57672 | -5.84104 | 2045 ft | 108 kts | 200° |
| 2026-05-04 21:38 | 54.56928 | -5.84391 | 2013 ft | 112 kts | 198° |
| 2026-05-04 21:38 | 54.56181 | -5.84761 | 2021 ft | 109 kts | 204° |
| 2026-05-04 21:39 | 54.55458 | -5.85155 | 2015 ft | 110 kts | 203° |
| 2026-05-04 21:39 | 54.54717 | -5.85542 | 2017 ft | 110 kts | 202° |
| 2026-05-04 21:39 | 54.53979 | -5.85909 | 2000 ft | 112 kts | 201° |
| 2026-05-04 21:39 | 54.53236 | -5.86292 | 2016 ft | 110 kts | 202° |
| 2026-05-04 21:40 | 54.52488 | -5.86658 | 2002 ft | 113 kts | 200° |
| 2026-05-04 21:40 | 54.51738 | -5.86992 | 2039 ft | 110 kts | 198° |
| 2026-05-04 21:40 | 54.50977 | -5.87283 | 2015 ft | 113 kts | 198° |
| 2026-05-04 21:40 | 54.50228 | -5.87657 | 2041 ft | 111 kts | 203° |
| 2026-05-04 21:41 | 54.49492 | -5.88070 | 2067 ft | 111 kts | 202° |
| 2026-05-04 21:41 | 54.48759 | -5.88483 | 2071 ft | 111 kts | 203° |
| 2026-05-04 21:41 | 54.48019 | -5.88873 | 2079 ft | 111 kts | 202° |
| 2026-05-04 21:41 | 54.47278 | -5.89285 | 2073 ft | 112 kts | 203° |
| 2026-05-04 21:42 | 54.46543 | -5.89718 | 2071 ft | 112 kts | 205° |
| 2026-05-04 21:42 | 54.45859 | -5.90329 | 2037 ft | 111 kts | 226° |
| 2026-05-04 21:42 | 54.45484 | -5.91419 | 2023 ft | 105 kts | 266° |
| 2026-05-04 21:42 | 54.45637 | -5.92575 | 2009 ft | 99 kts | 304° |
| 2026-05-04 21:43 | 54.45983 | -5.93563 | 1984 ft | 101 kts | 304° |
| 2026-05-04 21:43 | 54.46337 | -5.94603 | 1986 ft | 99 kts | 303° |
| 2026-05-04 21:43 | 54.46662 | -5.95669 | 1944 ft | 102 kts | 300° |
| 2026-05-04 21:43 | 54.46960 | -5.96758 | 1954 ft | 100 kts | 297° |
| 2026-05-04 21:44 | 54.47241 | -5.97877 | 1913 ft | 102 kts | 298° |
| 2026-05-04 21:44 | 54.47529 | -5.98967 | 1925 ft | 99 kts | 298° |
| 2026-05-04 21:44 | 54.47904 | -5.99964 | 1875 ft | 101 kts | 321° |
| 2026-05-04 21:44 | 54.48545 | -6.00318 | 1922 ft | 96 kts | 355° |
| 2026-05-04 21:45 | 54.49218 | -6.00332 | 1912 ft | 97 kts | 358° |
| 2026-05-04 21:45 | 54.49906 | -6.00373 | 1869 ft | 101 kts | 357° |
| 2026-05-04 21:45 | 54.50551 | -5.99931 | 1942 ft | 100 kts | 32° |
| 2026-05-04 21:45 | 54.51100 | -5.99176 | 1956 ft | 102 kts | 34° |
| 2026-05-04 21:46 | 54.51674 | -5.98441 | 1943 ft | 103 kts | 28° |
| 2026-05-04 21:46 | 54.52263 | -5.97762 | 1987 ft | 101 kts | 29° |
| 2026-05-04 21:46 | 54.52820 | -5.97079 | 1917 ft | 99 kts | 30° |
| 2026-05-04 21:46 | 54.53383 | -5.96393 | 1799 ft | 99 kts | 31° |
| 2026-05-04 21:47 | 54.53944 | -5.95672 | 1637 ft | 101 kts | 31° |
| 2026-05-04 21:47 | 54.54530 | -5.94999 | 1492 ft | 101 kts | 27° |
| 2026-05-04 21:47 | 54.55132 | -5.94381 | 1359 ft | 100 kts | 27° |
| 2026-05-04 21:47 | 54.55710 | -5.93787 | 1272 ft | 96 kts | 26° |
| 2026-05-04 21:48 | 54.56289 | -5.93213 | 1140 ft | 96 kts | 30° |
| 2026-05-04 21:48 | 54.56849 | -5.92576 | 1018 ft | 96 kts | 32° |
| 2026-05-04 21:48 | 54.57383 | -5.91905 | 929 ft | 95 kts | 34° |
| 2026-05-04 21:48 | 54.57935 | -5.91264 | 815 ft | 96 kts | 33° |
| 2026-05-04 21:49 | 54.58490 | -5.90615 | 691 ft | 97 kts | 30° |
| 2026-05-04 21:49 | 54.59082 | -5.90069 | 626 ft | 95 kts | 21° |
| 2026-05-04 21:49 | 54.59659 | -5.89708 | 538 ft | 83 kts | 20° |
| 2026-05-04 21:49 | 54.60163 | -5.89276 | 402 ft | 79 kts | 34° |
| 2026-05-04 21:50 | 54.60575 | -5.88732 | 276 ft | 68 kts | 31° |
| 2026-05-04 21:50 | 54.60950 | -5.88283 | 117 ft | 65 kts | 32° |
| 2026-05-04 21:50 | 54.61319 | -5.87840 | 29 ft | 63 kts | 32° |
| 2026-05-04 21:50 | 54.61625 | -5.87486 | 15 ft | 44 kts | 36° |
| 2026-05-04 21:51 | 54.61818 | -5.87250 | 17 ft | 23 kts | 50° |
| 2026-05-04 21:51 | 54.61793 | -5.87069 | 16 ft | 15 kts | 123° |
| 2026-05-04 21:51 | 54.61724 | -5.86999 | 16 ft | 11 kts | 195° |
| 2026-05-04 21:51 | 54.61664 | -5.87064 | 16 ft | 9 kts | 216° |
| 2026-05-04 21:52 | 54.61617 | -5.87120 | 16 ft | 6 kts | 213° |
| 2026-05-04 21:52 | 54.61589 | -5.87102 | 16 ft | 4 kts | 121° |
| 2026-05-04 21:52 | 54.61578 | -5.87064 | 16 ft | 3 kts | 109° |
| 2026-05-04 21:52 | 54.61573 | -5.87054 | 16 ft | 1 kts | 154° |
| 2026-05-04 21:53 | 54.61571 | -5.87053 | 16 ft | 0 kts | 194° |